<?xml version="1.0" encoding="UTF-8"?>
<gpx xmlns="http://www.topografix.com/GPX/1/1" xmlns:gpsies="http://www.gpsies.com/GPX/1/0" creator="GPSies http://www.gpsies.com - Cracoe Fell &amp;amp;amp; Thorpe Fell.gpx" version="1.1" xmlns:xsi="http://www.w3.org/2001/XMLSchema-instance" xsi:schemaLocation="http://www.topografix.com/GPX/1/1 http://www.topografix.com/GPX/1/1/gpx.xsd http://www.gpsies.com/GPX/1/0 http://www.gpsies.com/gpsies.xsd">
  <metadata>
    <name>Cracoe Fell &amp;amp; Thorpe Fell.gpx</name>
    <link href="http://www.gpsies.com/">
      <text>Cracoe Fell &amp;amp; Thorpe Fell.gpx on GPSies.com</text>
    </link>
    <time>2018-01-15T17:30:31Z</time>
  </metadata>
  <trk>
    <name>Cracoe Fell &amp;amp; Thorpe Fell.gpx on GPSies.com</name>
    <trkseg>
      <trkpt lat="53.99436398" lon="-1.94476489">
        <ele>312.20000</ele>
        <time>2010-01-01T00:00:00Z</time>
      </trkpt>
      <trkpt lat="53.99440898" lon="-1.94480989">
        <ele>312.20000</ele>
        <time>2010-01-01T00:00:02Z</time>
      </trkpt>
      <trkpt lat="53.99442498" lon="-1.94483489">
        <ele>312.20000</ele>
        <time>2010-01-01T00:00:02Z</time>
      </trkpt>
      <trkpt lat="53.99444598" lon="-1.94485289">
        <ele>312.20000</ele>
        <time>2010-01-01T00:00:03Z</time>
      </trkpt>
      <trkpt lat="53.99471998" lon="-1.94511689">
        <ele>313.20000</ele>
        <time>2010-01-01T00:00:16Z</time>
      </trkpt>
      <trkpt lat="53.99488198" lon="-1.94554789">
        <ele>318.80000</ele>
        <time>2010-01-01T00:00:28Z</time>
      </trkpt>
      <trkpt lat="53.99521898" lon="-1.94715689">
        <ele>320.20000</ele>
        <time>2010-01-01T00:01:08Z</time>
      </trkpt>
      <trkpt lat="53.99556598" lon="-1.94795489">
        <ele>314.90000</ele>
        <time>2010-01-01T00:01:32Z</time>
      </trkpt>
      <trkpt lat="53.99565998" lon="-1.94828989">
        <ele>314.30000</ele>
        <time>2010-01-01T00:01:40Z</time>
      </trkpt>
      <trkpt lat="53.99561198" lon="-1.94907189">
        <ele>313.40000</ele>
        <time>2010-01-01T00:01:59Z</time>
      </trkpt>
      <trkpt lat="53.99554198" lon="-1.94944989">
        <ele>320.90000</ele>
        <time>2010-01-01T00:02:08Z</time>
      </trkpt>
      <trkpt lat="53.99554798" lon="-1.94974489">
        <ele>320.90000</ele>
        <time>2010-01-01T00:02:15Z</time>
      </trkpt>
      <trkpt lat="53.99559398" lon="-1.95018789">
        <ele>313.60000</ele>
        <time>2010-01-01T00:02:26Z</time>
      </trkpt>
      <trkpt lat="53.99570198" lon="-1.95056289">
        <ele>314.10000</ele>
        <time>2010-01-01T00:02:36Z</time>
      </trkpt>
      <trkpt lat="53.99579898" lon="-1.95124189">
        <ele>314.10000</ele>
        <time>2010-01-01T00:02:52Z</time>
      </trkpt>
      <trkpt lat="53.99597198" lon="-1.95179889">
        <ele>315.80000</ele>
        <time>2010-01-01T00:03:07Z</time>
      </trkpt>
      <trkpt lat="53.99603698" lon="-1.95182689">
        <ele>306.50000</ele>
        <time>2010-01-01T00:03:09Z</time>
      </trkpt>
      <trkpt lat="53.99612598" lon="-1.95250889">
        <ele>308.90000</ele>
        <time>2010-01-01T00:03:26Z</time>
      </trkpt>
      <trkpt lat="53.99632798" lon="-1.95330989">
        <ele>311.50000</ele>
        <time>2010-01-01T00:03:46Z</time>
      </trkpt>
      <trkpt lat="53.99661498" lon="-1.95409989">
        <ele>305.90000</ele>
        <time>2010-01-01T00:04:08Z</time>
      </trkpt>
      <trkpt lat="53.99699198" lon="-1.95606089">
        <ele>304.80000</ele>
        <time>2010-01-01T00:04:57Z</time>
      </trkpt>
      <trkpt lat="53.99717598" lon="-1.95660989">
        <ele>304.80000</ele>
        <time>2010-01-01T00:05:12Z</time>
      </trkpt>
      <trkpt lat="53.99737598" lon="-1.95873889">
        <ele>301.10000</ele>
        <time>2010-01-01T00:06:02Z</time>
      </trkpt>
      <trkpt lat="53.99746798" lon="-1.95935789">
        <ele>302.70000</ele>
        <time>2010-01-01T00:06:17Z</time>
      </trkpt>
      <trkpt lat="53.99759998" lon="-1.96004289">
        <ele>303.50000</ele>
        <time>2010-01-01T00:06:34Z</time>
      </trkpt>
      <trkpt lat="53.99771398" lon="-1.96040489">
        <ele>303.50000</ele>
        <time>2010-01-01T00:06:44Z</time>
      </trkpt>
      <trkpt lat="53.99812998" lon="-1.96097089">
        <ele>299.80000</ele>
        <time>2010-01-01T00:07:05Z</time>
      </trkpt>
      <trkpt lat="53.99866998" lon="-1.96146289">
        <ele>307.60000</ele>
        <time>2010-01-01T00:07:30Z</time>
      </trkpt>
      <trkpt lat="53.99915198" lon="-1.96236589">
        <ele>315.50000</ele>
        <time>2010-01-01T00:07:59Z</time>
      </trkpt>
      <trkpt lat="53.99995798" lon="-1.96365689">
        <ele>314.10000</ele>
        <time>2010-01-01T00:08:43Z</time>
      </trkpt>
      <trkpt lat="54.00042598" lon="-1.96476389">
        <ele>315.80000</ele>
        <time>2010-01-01T00:09:15Z</time>
      </trkpt>
      <trkpt lat="54.00060498" lon="-1.96554289">
        <ele>316.70000</ele>
        <time>2010-01-01T00:09:35Z</time>
      </trkpt>
      <trkpt lat="54.00064298" lon="-1.96590089">
        <ele>319.60000</ele>
        <time>2010-01-01T00:09:43Z</time>
      </trkpt>
      <trkpt lat="54.00082998" lon="-1.96665389">
        <ele>323.10000</ele>
        <time>2010-01-01T00:10:02Z</time>
      </trkpt>
      <trkpt lat="54.00111598" lon="-1.96671489">
        <ele>321.80000</ele>
        <time>2010-01-01T00:10:14Z</time>
      </trkpt>
      <trkpt lat="54.00118398" lon="-1.96661089">
        <ele>321.80000</ele>
        <time>2010-01-01T00:10:18Z</time>
      </trkpt>
      <trkpt lat="54.00125498" lon="-1.96634389">
        <ele>320.70000</ele>
        <time>2010-01-01T00:10:25Z</time>
      </trkpt>
      <trkpt lat="54.00137198" lon="-1.96628489">
        <ele>320.70000</ele>
        <time>2010-01-01T00:10:29Z</time>
      </trkpt>
      <trkpt lat="54.00185398" lon="-1.96673689">
        <ele>328.20000</ele>
        <time>2010-01-01T00:10:51Z</time>
      </trkpt>
      <trkpt lat="54.00223898" lon="-1.96685989">
        <ele>332.60000</ele>
        <time>2010-01-01T00:11:07Z</time>
      </trkpt>
      <trkpt lat="54.00254598" lon="-1.96709089">
        <ele>334.80000</ele>
        <time>2010-01-01T00:11:21Z</time>
      </trkpt>
      <trkpt lat="54.00290998" lon="-1.96792789">
        <ele>341.50000</ele>
        <time>2010-01-01T00:11:45Z</time>
      </trkpt>
      <trkpt lat="54.00301998" lon="-1.96830789">
        <ele>347.20000</ele>
        <time>2010-01-01T00:11:55Z</time>
      </trkpt>
      <trkpt lat="54.00316098" lon="-1.96915089">
        <ele>351.30000</ele>
        <time>2010-01-01T00:12:16Z</time>
      </trkpt>
      <trkpt lat="54.00348998" lon="-1.97022289">
        <ele>354.50000</ele>
        <time>2010-01-01T00:12:44Z</time>
      </trkpt>
      <trkpt lat="54.00369398" lon="-1.97156289">
        <ele>361.00000</ele>
        <time>2010-01-01T00:13:17Z</time>
      </trkpt>
      <trkpt lat="54.00373298" lon="-1.97200289">
        <ele>368.30000</ele>
        <time>2010-01-01T00:13:27Z</time>
      </trkpt>
      <trkpt lat="54.00395198" lon="-1.97278489">
        <ele>375.50000</ele>
        <time>2010-01-01T00:13:48Z</time>
      </trkpt>
      <trkpt lat="54.00414498" lon="-1.97409189">
        <ele>382.00000</ele>
        <time>2010-01-01T00:14:19Z</time>
      </trkpt>
      <trkpt lat="54.00447498" lon="-1.97539889">
        <ele>391.10000</ele>
        <time>2010-01-01T00:14:53Z</time>
      </trkpt>
      <trkpt lat="54.00461298" lon="-1.97580789">
        <ele>393.20000</ele>
        <time>2010-01-01T00:15:04Z</time>
      </trkpt>
      <trkpt lat="54.00494398" lon="-1.97631689">
        <ele>393.20000</ele>
        <time>2010-01-01T00:15:22Z</time>
      </trkpt>
      <trkpt lat="54.00564098" lon="-1.97713689">
        <ele>391.20000</ele>
        <time>2010-01-01T00:15:56Z</time>
      </trkpt>
      <trkpt lat="54.00595898" lon="-1.97780589">
        <ele>391.20000</ele>
        <time>2010-01-01T00:16:16Z</time>
      </trkpt>
      <trkpt lat="54.00624798" lon="-1.97859389">
        <ele>394.50000</ele>
        <time>2010-01-01T00:16:38Z</time>
      </trkpt>
      <trkpt lat="54.00728198" lon="-1.98046089">
        <ele>399.70000</ele>
        <time>2010-01-01T00:17:38Z</time>
      </trkpt>
      <trkpt lat="54.00741598" lon="-1.98096489">
        <ele>396.80000</ele>
        <time>2010-01-01T00:17:51Z</time>
      </trkpt>
      <trkpt lat="54.00792498" lon="-1.98173389">
        <ele>395.80000</ele>
        <time>2010-01-01T00:18:18Z</time>
      </trkpt>
      <trkpt lat="54.00799698" lon="-1.98190489">
        <ele>395.80000</ele>
        <time>2010-01-01T00:18:23Z</time>
      </trkpt>
      <trkpt lat="54.00796798" lon="-1.98277089">
        <ele>406.80000</ele>
        <time>2010-01-01T00:18:44Z</time>
      </trkpt>
      <trkpt lat="54.00799298" lon="-1.98342789">
        <ele>406.80000</ele>
        <time>2010-01-01T00:18:59Z</time>
      </trkpt>
      <trkpt lat="54.00806498" lon="-1.98409389">
        <ele>409.70000</ele>
        <time>2010-01-01T00:19:15Z</time>
      </trkpt>
      <trkpt lat="54.00859998" lon="-1.98504789">
        <ele>416.90000</ele>
        <time>2010-01-01T00:19:46Z</time>
      </trkpt>
      <trkpt lat="54.00872898" lon="-1.98536289">
        <ele>419.40000</ele>
        <time>2010-01-01T00:19:55Z</time>
      </trkpt>
      <trkpt lat="54.00885198" lon="-1.98552689">
        <ele>419.40000</ele>
        <time>2010-01-01T00:20:01Z</time>
      </trkpt>
      <trkpt lat="54.00915298" lon="-1.98699089">
        <ele>422.00000</ele>
        <time>2010-01-01T00:20:38Z</time>
      </trkpt>
      <trkpt lat="54.00989798" lon="-1.98997389">
        <ele>430.40000</ele>
        <time>2010-01-01T00:21:54Z</time>
      </trkpt>
      <trkpt lat="54.00999798" lon="-1.99007989">
        <ele>430.40000</ele>
        <time>2010-01-01T00:21:59Z</time>
      </trkpt>
      <trkpt lat="54.00995498" lon="-1.99046389">
        <ele>429.90000</ele>
        <time>2010-01-01T00:22:08Z</time>
      </trkpt>
      <trkpt lat="54.00997598" lon="-1.99214989">
        <ele>426.50000</ele>
        <time>2010-01-01T00:22:48Z</time>
      </trkpt>
      <trkpt lat="54.00972398" lon="-1.99700289">
        <ele>413.70000</ele>
        <time>2010-01-01T00:24:42Z</time>
      </trkpt>
      <trkpt lat="54.00962698" lon="-1.99810989">
        <ele>409.20000</ele>
        <time>2010-01-01T00:25:09Z</time>
      </trkpt>
      <trkpt lat="54.00964798" lon="-1.99840389">
        <ele>409.20000</ele>
        <time>2010-01-01T00:25:16Z</time>
      </trkpt>
      <trkpt lat="54.00976498" lon="-1.99880089">
        <ele>409.20000</ele>
        <time>2010-01-01T00:25:26Z</time>
      </trkpt>
      <trkpt lat="54.00977198" lon="-1.99903389">
        <ele>407.70000</ele>
        <time>2010-01-01T00:25:32Z</time>
      </trkpt>
      <trkpt lat="54.00970898" lon="-1.99970689">
        <ele>405.70000</ele>
        <time>2010-01-01T00:25:48Z</time>
      </trkpt>
      <trkpt lat="54.00977398" lon="-2.00001689">
        <ele>405.70000</ele>
        <time>2010-01-01T00:25:55Z</time>
      </trkpt>
      <trkpt lat="54.00984198" lon="-2.00077189">
        <ele>403.80000</ele>
        <time>2010-01-01T00:26:13Z</time>
      </trkpt>
      <trkpt lat="54.01006298" lon="-2.00160789">
        <ele>403.60000</ele>
        <time>2010-01-01T00:26:35Z</time>
      </trkpt>
      <trkpt lat="54.01005198" lon="-2.00375889">
        <ele>400.50000</ele>
        <time>2010-01-01T00:27:25Z</time>
      </trkpt>
      <trkpt lat="54.01011898" lon="-2.00455989">
        <ele>399.90000</ele>
        <time>2010-01-01T00:27:44Z</time>
      </trkpt>
      <trkpt lat="54.01012598" lon="-2.00506989">
        <ele>397.50000</ele>
        <time>2010-01-01T00:27:56Z</time>
      </trkpt>
      <trkpt lat="54.01026398" lon="-2.00592189">
        <ele>393.50000</ele>
        <time>2010-01-01T00:28:17Z</time>
      </trkpt>
      <trkpt lat="54.01029398" lon="-2.00664589">
        <ele>391.10000</ele>
        <time>2010-01-01T00:28:34Z</time>
      </trkpt>
      <trkpt lat="54.01042498" lon="-2.00740589">
        <ele>383.90000</ele>
        <time>2010-01-01T00:28:53Z</time>
      </trkpt>
      <trkpt lat="54.01053998" lon="-2.00757289">
        <ele>382.90000</ele>
        <time>2010-01-01T00:28:59Z</time>
      </trkpt>
      <trkpt lat="54.01099098" lon="-2.00793689">
        <ele>381.60000</ele>
        <time>2010-01-01T00:29:19Z</time>
      </trkpt>
      <trkpt lat="54.01123798" lon="-2.00856289">
        <ele>379.40000</ele>
        <time>2010-01-01T00:29:37Z</time>
      </trkpt>
      <trkpt lat="54.01134198" lon="-2.00871689">
        <ele>379.40000</ele>
        <time>2010-01-01T00:29:42Z</time>
      </trkpt>
      <trkpt lat="54.01173298" lon="-2.01010689">
        <ele>377.90000</ele>
        <time>2010-01-01T00:30:19Z</time>
      </trkpt>
      <trkpt lat="54.01178598" lon="-2.01086289">
        <ele>375.50000</ele>
        <time>2010-01-01T00:30:36Z</time>
      </trkpt>
      <trkpt lat="54.01182498" lon="-2.01111589">
        <ele>377.60000</ele>
        <time>2010-01-01T00:30:43Z</time>
      </trkpt>
      <trkpt lat="54.01190698" lon="-2.01134689">
        <ele>377.60000</ele>
        <time>2010-01-01T00:30:49Z</time>
      </trkpt>
      <trkpt lat="54.01199998" lon="-2.01147189">
        <ele>377.60000</ele>
        <time>2010-01-01T00:30:54Z</time>
      </trkpt>
      <trkpt lat="54.01197998" lon="-2.01189089">
        <ele>378.80000</ele>
        <time>2010-01-01T00:31:04Z</time>
      </trkpt>
      <trkpt lat="54.01209998" lon="-2.01259189">
        <ele>378.80000</ele>
        <time>2010-01-01T00:31:21Z</time>
      </trkpt>
      <trkpt lat="54.01206398" lon="-2.01320089">
        <ele>380.30000</ele>
        <time>2010-01-01T00:31:35Z</time>
      </trkpt>
      <trkpt lat="54.01189498" lon="-2.01366089">
        <ele>381.80000</ele>
        <time>2010-01-01T00:31:48Z</time>
      </trkpt>
      <trkpt lat="54.01181298" lon="-2.01378689">
        <ele>378.50000</ele>
        <time>2010-01-01T00:31:52Z</time>
      </trkpt>
      <trkpt lat="54.01172998" lon="-2.01416589">
        <ele>380.10000</ele>
        <time>2010-01-01T00:32:02Z</time>
      </trkpt>
      <trkpt lat="54.01134498" lon="-2.01522189">
        <ele>377.40000</ele>
        <time>2010-01-01T00:32:31Z</time>
      </trkpt>
      <trkpt lat="54.01135898" lon="-2.01564189">
        <ele>377.40000</ele>
        <time>2010-01-01T00:32:41Z</time>
      </trkpt>
      <trkpt lat="54.01128598" lon="-2.01625289">
        <ele>378.50000</ele>
        <time>2010-01-01T00:32:56Z</time>
      </trkpt>
      <trkpt lat="54.01127898" lon="-2.01702089">
        <ele>379.60000</ele>
        <time>2010-01-01T00:33:14Z</time>
      </trkpt>
      <trkpt lat="54.01111598" lon="-2.01752689">
        <ele>381.20000</ele>
        <time>2010-01-01T00:33:27Z</time>
      </trkpt>
      <trkpt lat="54.01093998" lon="-2.01787389">
        <ele>381.20000</ele>
        <time>2010-01-01T00:33:38Z</time>
      </trkpt>
      <trkpt lat="54.01082598" lon="-2.01852289">
        <ele>377.80000</ele>
        <time>2010-01-01T00:33:54Z</time>
      </trkpt>
      <trkpt lat="54.01065198" lon="-2.01900589">
        <ele>378.80000</ele>
        <time>2010-01-01T00:34:07Z</time>
      </trkpt>
      <trkpt lat="54.01046198" lon="-2.01984889">
        <ele>377.30000</ele>
        <time>2010-01-01T00:34:29Z</time>
      </trkpt>
      <trkpt lat="54.01033698" lon="-2.02015489">
        <ele>377.30000</ele>
        <time>2010-01-01T00:34:37Z</time>
      </trkpt>
      <trkpt lat="54.01026498" lon="-2.02091189">
        <ele>377.60000</ele>
        <time>2010-01-01T00:34:55Z</time>
      </trkpt>
      <trkpt lat="54.01015098" lon="-2.02144489">
        <ele>375.20000</ele>
        <time>2010-01-01T00:35:09Z</time>
      </trkpt>
      <trkpt lat="54.01009598" lon="-2.02195889">
        <ele>373.60000</ele>
        <time>2010-01-01T00:35:21Z</time>
      </trkpt>
      <trkpt lat="54.00995698" lon="-2.02226389">
        <ele>369.90000</ele>
        <time>2010-01-01T00:35:30Z</time>
      </trkpt>
      <trkpt lat="54.00998698" lon="-2.02305689">
        <ele>369.70000</ele>
        <time>2010-01-01T00:35:49Z</time>
      </trkpt>
      <trkpt lat="54.00991798" lon="-2.02356489">
        <ele>369.80000</ele>
        <time>2010-01-01T00:36:01Z</time>
      </trkpt>
      <trkpt lat="54.00979498" lon="-2.02404889">
        <ele>369.80000</ele>
        <time>2010-01-01T00:36:13Z</time>
      </trkpt>
      <trkpt lat="54.00973998" lon="-2.02469289">
        <ele>370.00000</ele>
        <time>2010-01-01T00:36:29Z</time>
      </trkpt>
      <trkpt lat="54.00978998" lon="-2.02474589">
        <ele>370.00000</ele>
        <time>2010-01-01T00:36:31Z</time>
      </trkpt>
      <trkpt lat="54.00986398" lon="-2.02501889">
        <ele>371.00000</ele>
        <time>2010-01-01T00:36:38Z</time>
      </trkpt>
      <trkpt lat="54.01089698" lon="-2.02651889">
        <ele>382.80000</ele>
        <time>2010-01-01T00:37:33Z</time>
      </trkpt>
      <trkpt lat="54.01147998" lon="-2.02778089">
        <ele>395.90000</ele>
        <time>2010-01-01T00:38:10Z</time>
      </trkpt>
      <trkpt lat="54.01177698" lon="-2.02794289">
        <ele>395.90000</ele>
        <time>2010-01-01T00:38:23Z</time>
      </trkpt>
      <trkpt lat="54.01240198" lon="-2.02794589">
        <ele>383.80000</ele>
        <time>2010-01-01T00:38:48Z</time>
      </trkpt>
      <trkpt lat="54.01281998" lon="-2.02813989">
        <ele>389.90000</ele>
        <time>2010-01-01T00:39:05Z</time>
      </trkpt>
      <trkpt lat="54.01348698" lon="-2.02802889">
        <ele>384.90000</ele>
        <time>2010-01-01T00:39:32Z</time>
      </trkpt>
      <trkpt lat="54.01409098" lon="-2.02773089">
        <ele>408.10000</ele>
        <time>2010-01-01T00:39:57Z</time>
      </trkpt>
      <trkpt lat="54.01417198" lon="-2.02786889">
        <ele>408.10000</ele>
        <time>2010-01-01T00:40:02Z</time>
      </trkpt>
      <trkpt lat="54.01448298" lon="-2.02808989">
        <ele>393.80000</ele>
        <time>2010-01-01T00:40:15Z</time>
      </trkpt>
      <trkpt lat="54.01444198" lon="-2.02799289">
        <ele>393.80000</ele>
        <time>2010-01-01T00:40:18Z</time>
      </trkpt>
      <trkpt lat="54.01453198" lon="-2.02788789">
        <ele>396.30000</ele>
        <time>2010-01-01T00:40:22Z</time>
      </trkpt>
      <trkpt lat="54.01460498" lon="-2.02788489">
        <ele>396.30000</ele>
        <time>2010-01-01T00:40:25Z</time>
      </trkpt>
      <trkpt lat="54.01435798" lon="-2.02788289">
        <ele>408.10000</ele>
        <time>2010-01-01T00:40:35Z</time>
      </trkpt>
      <trkpt lat="54.01417798" lon="-2.02780789">
        <ele>408.10000</ele>
        <time>2010-01-01T00:40:43Z</time>
      </trkpt>
      <trkpt lat="54.01415298" lon="-2.02768289">
        <ele>408.10000</ele>
        <time>2010-01-01T00:40:46Z</time>
      </trkpt>
      <trkpt lat="54.01438898" lon="-2.02700889">
        <ele>411.30000</ele>
        <time>2010-01-01T00:41:04Z</time>
      </trkpt>
      <trkpt lat="54.01451098" lon="-2.02679489">
        <ele>411.30000</ele>
        <time>2010-01-01T00:41:11Z</time>
      </trkpt>
      <trkpt lat="54.01458698" lon="-2.02620889">
        <ele>412.50000</ele>
        <time>2010-01-01T00:41:25Z</time>
      </trkpt>
      <trkpt lat="54.01487498" lon="-2.02514089">
        <ele>412.00000</ele>
        <time>2010-01-01T00:41:53Z</time>
      </trkpt>
      <trkpt lat="54.01521198" lon="-2.02443389">
        <ele>415.00000</ele>
        <time>2010-01-01T00:42:14Z</time>
      </trkpt>
      <trkpt lat="54.01564798" lon="-2.02391189">
        <ele>431.00000</ele>
        <time>2010-01-01T00:42:36Z</time>
      </trkpt>
      <trkpt lat="54.01579498" lon="-2.02355589">
        <ele>431.00000</ele>
        <time>2010-01-01T00:42:46Z</time>
      </trkpt>
      <trkpt lat="54.01589398" lon="-2.02266389">
        <ele>423.90000</ele>
        <time>2010-01-01T00:43:07Z</time>
      </trkpt>
      <trkpt lat="54.01620598" lon="-2.02181389">
        <ele>433.60000</ele>
        <time>2010-01-01T00:43:31Z</time>
      </trkpt>
      <trkpt lat="54.01618598" lon="-2.02152889">
        <ele>430.50000</ele>
        <time>2010-01-01T00:43:38Z</time>
      </trkpt>
      <trkpt lat="54.01624598" lon="-2.02113189">
        <ele>430.50000</ele>
        <time>2010-01-01T00:43:47Z</time>
      </trkpt>
      <trkpt lat="54.01636298" lon="-2.02086189">
        <ele>423.10000</ele>
        <time>2010-01-01T00:43:55Z</time>
      </trkpt>
      <trkpt lat="54.01642298" lon="-2.02055689">
        <ele>423.10000</ele>
        <time>2010-01-01T00:44:03Z</time>
      </trkpt>
      <trkpt lat="54.01670198" lon="-2.02015389">
        <ele>430.30000</ele>
        <time>2010-01-01T00:44:17Z</time>
      </trkpt>
      <trkpt lat="54.01686498" lon="-2.01978789">
        <ele>419.40000</ele>
        <time>2010-01-01T00:44:28Z</time>
      </trkpt>
      <trkpt lat="54.01746098" lon="-2.01894389">
        <ele>422.90000</ele>
        <time>2010-01-01T00:44:59Z</time>
      </trkpt>
      <trkpt lat="54.01772998" lon="-2.01848489">
        <ele>431.40000</ele>
        <time>2010-01-01T00:45:14Z</time>
      </trkpt>
      <trkpt lat="54.01787098" lon="-2.01832689">
        <ele>431.40000</ele>
        <time>2010-01-01T00:45:21Z</time>
      </trkpt>
      <trkpt lat="54.01834498" lon="-2.01802689">
        <ele>428.20000</ele>
        <time>2010-01-01T00:45:41Z</time>
      </trkpt>
      <trkpt lat="54.01902698" lon="-2.01720189">
        <ele>457.70000</ele>
        <time>2010-01-01T00:46:15Z</time>
      </trkpt>
      <trkpt lat="54.01947898" lon="-2.01646889">
        <ele>458.70000</ele>
        <time>2010-01-01T00:46:40Z</time>
      </trkpt>
      <trkpt lat="54.02023898" lon="-2.01568889">
        <ele>461.60000</ele>
        <time>2010-01-01T00:47:15Z</time>
      </trkpt>
      <trkpt lat="54.02184798" lon="-2.01449389">
        <ele>473.40000</ele>
        <time>2010-01-01T00:48:26Z</time>
      </trkpt>
      <trkpt lat="54.02271598" lon="-2.01437089">
        <ele>478.90000</ele>
        <time>2010-01-01T00:49:01Z</time>
      </trkpt>
      <trkpt lat="54.02310298" lon="-2.01422989">
        <ele>478.90000</ele>
        <time>2010-01-01T00:49:16Z</time>
      </trkpt>
      <trkpt lat="54.02336498" lon="-2.01400189">
        <ele>480.90000</ele>
        <time>2010-01-01T00:49:28Z</time>
      </trkpt>
      <trkpt lat="54.02361498" lon="-2.01391289">
        <ele>481.90000</ele>
        <time>2010-01-01T00:49:38Z</time>
      </trkpt>
      <trkpt lat="54.02393198" lon="-2.01367089">
        <ele>481.90000</ele>
        <time>2010-01-01T00:49:52Z</time>
      </trkpt>
      <trkpt lat="54.02435498" lon="-2.01322789">
        <ele>488.60000</ele>
        <time>2010-01-01T00:50:12Z</time>
      </trkpt>
      <trkpt lat="54.02448598" lon="-2.01292689">
        <ele>491.30000</ele>
        <time>2010-01-01T00:50:21Z</time>
      </trkpt>
      <trkpt lat="54.02473798" lon="-2.01262389">
        <ele>491.30000</ele>
        <time>2010-01-01T00:50:33Z</time>
      </trkpt>
      <trkpt lat="54.02486798" lon="-2.01228289">
        <ele>495.50000</ele>
        <time>2010-01-01T00:50:43Z</time>
      </trkpt>
      <trkpt lat="54.02487098" lon="-2.01217389">
        <ele>495.50000</ele>
        <time>2010-01-01T00:50:46Z</time>
      </trkpt>
      <trkpt lat="54.02513198" lon="-2.01172589">
        <ele>500.80000</ele>
        <time>2010-01-01T00:51:00Z</time>
      </trkpt>
      <trkpt lat="54.02524398" lon="-2.01142389">
        <ele>500.80000</ele>
        <time>2010-01-01T00:51:09Z</time>
      </trkpt>
      <trkpt lat="54.02534998" lon="-2.01148089">
        <ele>500.80000</ele>
        <time>2010-01-01T00:51:13Z</time>
      </trkpt>
      <trkpt lat="54.02544598" lon="-2.01176589">
        <ele>502.60000</ele>
        <time>2010-01-01T00:51:21Z</time>
      </trkpt>
      <trkpt lat="54.02551998" lon="-2.01186189">
        <ele>496.60000</ele>
        <time>2010-01-01T00:51:25Z</time>
      </trkpt>
      <trkpt lat="54.02549998" lon="-2.01177789">
        <ele>502.60000</ele>
        <time>2010-01-01T00:51:27Z</time>
      </trkpt>
      <trkpt lat="54.02554098" lon="-2.01189289">
        <ele>496.60000</ele>
        <time>2010-01-01T00:51:30Z</time>
      </trkpt>
      <trkpt lat="54.02550098" lon="-2.01189489">
        <ele>496.60000</ele>
        <time>2010-01-01T00:51:32Z</time>
      </trkpt>
      <trkpt lat="54.02529598" lon="-2.01151389">
        <ele>500.80000</ele>
        <time>2010-01-01T00:51:44Z</time>
      </trkpt>
      <trkpt lat="54.02526298" lon="-2.01126289">
        <ele>500.80000</ele>
        <time>2010-01-01T00:51:50Z</time>
      </trkpt>
      <trkpt lat="54.02534298" lon="-2.01105089">
        <ele>500.70000</ele>
        <time>2010-01-01T00:51:56Z</time>
      </trkpt>
      <trkpt lat="54.02620098" lon="-2.00960389">
        <ele>493.90000</ele>
        <time>2010-01-01T00:52:44Z</time>
      </trkpt>
      <trkpt lat="54.02746498" lon="-2.00786289">
        <ele>488.20000</ele>
        <time>2010-01-01T00:53:49Z</time>
      </trkpt>
      <trkpt lat="54.02794098" lon="-2.00738589">
        <ele>485.70000</ele>
        <time>2010-01-01T00:54:11Z</time>
      </trkpt>
      <trkpt lat="54.02827498" lon="-2.00731089">
        <ele>483.20000</ele>
        <time>2010-01-01T00:54:25Z</time>
      </trkpt>
      <trkpt lat="54.02845298" lon="-2.00717289">
        <ele>484.10000</ele>
        <time>2010-01-01T00:54:33Z</time>
      </trkpt>
      <trkpt lat="54.02866298" lon="-2.00675089">
        <ele>482.00000</ele>
        <time>2010-01-01T00:54:46Z</time>
      </trkpt>
      <trkpt lat="54.02937998" lon="-2.00598089">
        <ele>480.90000</ele>
        <time>2010-01-01T00:55:19Z</time>
      </trkpt>
      <trkpt lat="54.03004498" lon="-2.00545789">
        <ele>476.20000</ele>
        <time>2010-01-01T00:55:49Z</time>
      </trkpt>
      <trkpt lat="54.03055898" lon="-2.00473989">
        <ele>473.20000</ele>
        <time>2010-01-01T00:56:15Z</time>
      </trkpt>
      <trkpt lat="54.03059398" lon="-2.00461989">
        <ele>473.20000</ele>
        <time>2010-01-01T00:56:19Z</time>
      </trkpt>
      <trkpt lat="54.03099098" lon="-2.00427789">
        <ele>468.90000</ele>
        <time>2010-01-01T00:56:36Z</time>
      </trkpt>
      <trkpt lat="54.03129398" lon="-2.00381389">
        <ele>470.70000</ele>
        <time>2010-01-01T00:56:53Z</time>
      </trkpt>
      <trkpt lat="54.03131798" lon="-2.00371789">
        <ele>470.70000</ele>
        <time>2010-01-01T00:56:55Z</time>
      </trkpt>
      <trkpt lat="54.03177898" lon="-2.00340289">
        <ele>471.70000</ele>
        <time>2010-01-01T00:57:15Z</time>
      </trkpt>
      <trkpt lat="54.03225298" lon="-2.00279389">
        <ele>470.90000</ele>
        <time>2010-01-01T00:57:39Z</time>
      </trkpt>
      <trkpt lat="54.03212298" lon="-2.00246989">
        <ele>472.90000</ele>
        <time>2010-01-01T00:57:48Z</time>
      </trkpt>
      <trkpt lat="54.03165498" lon="-2.00186089">
        <ele>476.00000</ele>
        <time>2010-01-01T00:58:12Z</time>
      </trkpt>
      <trkpt lat="54.03135698" lon="-2.00156389">
        <ele>476.00000</ele>
        <time>2010-01-01T00:58:25Z</time>
      </trkpt>
      <trkpt lat="54.03082398" lon="-2.00078889">
        <ele>479.10000</ele>
        <time>2010-01-01T00:58:53Z</time>
      </trkpt>
      <trkpt lat="54.03086098" lon="-1.99996489">
        <ele>479.50000</ele>
        <time>2010-01-01T00:59:13Z</time>
      </trkpt>
      <trkpt lat="54.03099298" lon="-1.99920789">
        <ele>479.30000</ele>
        <time>2010-01-01T00:59:31Z</time>
      </trkpt>
      <trkpt lat="54.03102698" lon="-1.99727089">
        <ele>483.00000</ele>
        <time>2010-01-01T01:00:17Z</time>
      </trkpt>
      <trkpt lat="54.03143998" lon="-1.99615989">
        <ele>486.60000</ele>
        <time>2010-01-01T01:00:48Z</time>
      </trkpt>
      <trkpt lat="54.03165998" lon="-1.99515489">
        <ele>489.30000</ele>
        <time>2010-01-01T01:01:13Z</time>
      </trkpt>
      <trkpt lat="54.03165198" lon="-1.99463789">
        <ele>490.70000</ele>
        <time>2010-01-01T01:01:25Z</time>
      </trkpt>
      <trkpt lat="54.03181798" lon="-1.99450789">
        <ele>492.10000</ele>
        <time>2010-01-01T01:01:33Z</time>
      </trkpt>
      <trkpt lat="54.03192898" lon="-1.99429589">
        <ele>492.10000</ele>
        <time>2010-01-01T01:01:39Z</time>
      </trkpt>
      <trkpt lat="54.03193398" lon="-1.99381389">
        <ele>496.10000</ele>
        <time>2010-01-01T01:01:51Z</time>
      </trkpt>
      <trkpt lat="54.03209398" lon="-1.99305889">
        <ele>499.40000</ele>
        <time>2010-01-01T01:02:10Z</time>
      </trkpt>
      <trkpt lat="54.03207098" lon="-1.99289089">
        <ele>499.40000</ele>
        <time>2010-01-01T01:02:14Z</time>
      </trkpt>
      <trkpt lat="54.03210598" lon="-1.99212989">
        <ele>500.90000</ele>
        <time>2010-01-01T01:02:32Z</time>
      </trkpt>
      <trkpt lat="54.03204798" lon="-1.99175689">
        <ele>501.30000</ele>
        <time>2010-01-01T01:02:41Z</time>
      </trkpt>
      <trkpt lat="54.03204098" lon="-1.99140089">
        <ele>501.30000</ele>
        <time>2010-01-01T01:02:49Z</time>
      </trkpt>
      <trkpt lat="54.03207398" lon="-1.99105289">
        <ele>501.40000</ele>
        <time>2010-01-01T01:02:57Z</time>
      </trkpt>
      <trkpt lat="54.03214798" lon="-1.99072189">
        <ele>502.00000</ele>
        <time>2010-01-01T01:03:06Z</time>
      </trkpt>
      <trkpt lat="54.03206498" lon="-1.99070789">
        <ele>501.40000</ele>
        <time>2010-01-01T01:03:09Z</time>
      </trkpt>
      <trkpt lat="54.03197898" lon="-1.98981389">
        <ele>501.60000</ele>
        <time>2010-01-01T01:03:30Z</time>
      </trkpt>
      <trkpt lat="54.03200398" lon="-1.98978589">
        <ele>501.60000</ele>
        <time>2010-01-01T01:03:31Z</time>
      </trkpt>
      <trkpt lat="54.03203298" lon="-1.98921289">
        <ele>501.40000</ele>
        <time>2010-01-01T01:03:45Z</time>
      </trkpt>
      <trkpt lat="54.03226598" lon="-1.98894689">
        <ele>501.70000</ele>
        <time>2010-01-01T01:03:56Z</time>
      </trkpt>
      <trkpt lat="54.03244298" lon="-1.98885889">
        <ele>501.70000</ele>
        <time>2010-01-01T01:04:04Z</time>
      </trkpt>
      <trkpt lat="54.03258098" lon="-1.98890389">
        <ele>501.70000</ele>
        <time>2010-01-01T01:04:09Z</time>
      </trkpt>
      <trkpt lat="54.03271998" lon="-1.98880089">
        <ele>501.70000</ele>
        <time>2010-01-01T01:04:15Z</time>
      </trkpt>
      <trkpt lat="54.03307598" lon="-1.98870489">
        <ele>502.10000</ele>
        <time>2010-01-01T01:04:30Z</time>
      </trkpt>
      <trkpt lat="54.03326298" lon="-1.98853089">
        <ele>502.10000</ele>
        <time>2010-01-01T01:04:38Z</time>
      </trkpt>
      <trkpt lat="54.03326298" lon="-1.98852989">
        <ele>502.10000</ele>
        <time>2010-01-01T01:04:38Z</time>
      </trkpt>
      <trkpt lat="54.03323798" lon="-1.98852389">
        <ele>502.10000</ele>
        <time>2010-01-01T01:04:39Z</time>
      </trkpt>
      <trkpt lat="54.03323198" lon="-1.98852689">
        <ele>502.10000</ele>
        <time>2010-01-01T01:04:39Z</time>
      </trkpt>
      <trkpt lat="54.03323098" lon="-1.98852789">
        <ele>502.10000</ele>
        <time>2010-01-01T01:04:39Z</time>
      </trkpt>
      <trkpt lat="54.03323198" lon="-1.98852789">
        <ele>502.10000</ele>
        <time>2010-01-01T01:04:39Z</time>
      </trkpt>
      <trkpt lat="54.03323198" lon="-1.98852689">
        <ele>502.10000</ele>
        <time>2010-01-01T01:04:39Z</time>
      </trkpt>
      <trkpt lat="54.03323198" lon="-1.98852589">
        <ele>502.10000</ele>
        <time>2010-01-01T01:04:39Z</time>
      </trkpt>
      <trkpt lat="54.03323198" lon="-1.98852489">
        <ele>502.10000</ele>
        <time>2010-01-01T01:04:39Z</time>
      </trkpt>
      <trkpt lat="54.03323198" lon="-1.98852389">
        <ele>502.10000</ele>
        <time>2010-01-01T01:04:39Z</time>
      </trkpt>
      <trkpt lat="54.03323198" lon="-1.98852289">
        <ele>502.10000</ele>
        <time>2010-01-01T01:04:39Z</time>
      </trkpt>
      <trkpt lat="54.03323198" lon="-1.98852189">
        <ele>502.10000</ele>
        <time>2010-01-01T01:04:39Z</time>
      </trkpt>
      <trkpt lat="54.03323198" lon="-1.98851989">
        <ele>502.10000</ele>
        <time>2010-01-01T01:04:40Z</time>
      </trkpt>
      <trkpt lat="54.03323098" lon="-1.98851889">
        <ele>502.10000</ele>
        <time>2010-01-01T01:04:40Z</time>
      </trkpt>
      <trkpt lat="54.03323098" lon="-1.98851789">
        <ele>502.10000</ele>
        <time>2010-01-01T01:04:40Z</time>
      </trkpt>
      <trkpt lat="54.03323098" lon="-1.98851689">
        <ele>502.10000</ele>
        <time>2010-01-01T01:04:40Z</time>
      </trkpt>
      <trkpt lat="54.03323098" lon="-1.98851589">
        <ele>502.10000</ele>
        <time>2010-01-01T01:04:40Z</time>
      </trkpt>
      <trkpt lat="54.03322998" lon="-1.98851589">
        <ele>502.10000</ele>
        <time>2010-01-01T01:04:40Z</time>
      </trkpt>
      <trkpt lat="54.03322998" lon="-1.98851489">
        <ele>502.10000</ele>
        <time>2010-01-01T01:04:40Z</time>
      </trkpt>
      <trkpt lat="54.03322898" lon="-1.98851489">
        <ele>502.10000</ele>
        <time>2010-01-01T01:04:40Z</time>
      </trkpt>
      <trkpt lat="54.03322898" lon="-1.98851389">
        <ele>502.10000</ele>
        <time>2010-01-01T01:04:40Z</time>
      </trkpt>
      <trkpt lat="54.03322798" lon="-1.98851389">
        <ele>502.10000</ele>
        <time>2010-01-01T01:04:40Z</time>
      </trkpt>
      <trkpt lat="54.03322698" lon="-1.98851389">
        <ele>502.10000</ele>
        <time>2010-01-01T01:04:40Z</time>
      </trkpt>
      <trkpt lat="54.03323798" lon="-1.98848789">
        <ele>502.10000</ele>
        <time>2010-01-01T01:04:40Z</time>
      </trkpt>
      <trkpt lat="54.03323798" lon="-1.98848689">
        <ele>502.10000</ele>
        <time>2010-01-01T01:04:40Z</time>
      </trkpt>
      <trkpt lat="54.03432648" lon="-1.98996951">
        <ele>501.60000</ele>
        <time>2010-01-01T01:05:36Z</time>
      </trkpt>
      <trkpt lat="54.03506198" lon="-1.99074689">
        <ele>493.10000</ele>
        <time>2010-01-01T01:06:11Z</time>
      </trkpt>
      <trkpt lat="54.03437798" lon="-1.98819889">
        <ele>501.30000</ele>
        <time>2010-01-01T01:07:17Z</time>
      </trkpt>
      <trkpt lat="54.03405998" lon="-1.98704289">
        <ele>497.30000</ele>
        <time>2010-01-01T01:07:47Z</time>
      </trkpt>
      <trkpt lat="54.03389998" lon="-1.98645189">
        <ele>495.30000</ele>
        <time>2010-01-01T01:08:02Z</time>
      </trkpt>
      <trkpt lat="54.03386498" lon="-1.98577389">
        <ele>495.30000</ele>
        <time>2010-01-01T01:08:18Z</time>
      </trkpt>
      <trkpt lat="54.03395098" lon="-1.98475189">
        <ele>486.70000</ele>
        <time>2010-01-01T01:08:42Z</time>
      </trkpt>
      <trkpt lat="54.03415598" lon="-1.98389289">
        <ele>481.90000</ele>
        <time>2010-01-01T01:09:04Z</time>
      </trkpt>
      <trkpt lat="54.03426998" lon="-1.98315889">
        <ele>477.10000</ele>
        <time>2010-01-01T01:09:22Z</time>
      </trkpt>
      <trkpt lat="54.03442298" lon="-1.98265689">
        <ele>470.60000</ele>
        <time>2010-01-01T01:09:35Z</time>
      </trkpt>
      <trkpt lat="54.03451398" lon="-1.98200989">
        <ele>470.60000</ele>
        <time>2010-01-01T01:09:51Z</time>
      </trkpt>
      <trkpt lat="54.03469498" lon="-1.98122589">
        <ele>465.40000</ele>
        <time>2010-01-01T01:10:11Z</time>
      </trkpt>
      <trkpt lat="54.03472998" lon="-1.98088689">
        <ele>460.80000</ele>
        <time>2010-01-01T01:10:19Z</time>
      </trkpt>
      <trkpt lat="54.03479598" lon="-1.98070589">
        <ele>460.80000</ele>
        <time>2010-01-01T01:10:24Z</time>
      </trkpt>
      <trkpt lat="54.03485198" lon="-1.98007189">
        <ele>458.30000</ele>
        <time>2010-01-01T01:10:39Z</time>
      </trkpt>
      <trkpt lat="54.03498198" lon="-1.97941489">
        <ele>454.30000</ele>
        <time>2010-01-01T01:10:55Z</time>
      </trkpt>
      <trkpt lat="54.03523998" lon="-1.97913289">
        <ele>454.30000</ele>
        <time>2010-01-01T01:11:07Z</time>
      </trkpt>
      <trkpt lat="54.03550298" lon="-1.97833089">
        <ele>451.50000</ele>
        <time>2010-01-01T01:11:29Z</time>
      </trkpt>
      <trkpt lat="54.03550798" lon="-1.97843089">
        <ele>451.50000</ele>
        <time>2010-01-01T01:11:31Z</time>
      </trkpt>
      <trkpt lat="54.03555098" lon="-1.97845589">
        <ele>451.50000</ele>
        <time>2010-01-01T01:11:33Z</time>
      </trkpt>
      <trkpt lat="54.03571098" lon="-1.97828389">
        <ele>451.50000</ele>
        <time>2010-01-01T01:11:41Z</time>
      </trkpt>
      <trkpt lat="54.03583698" lon="-1.97759289">
        <ele>447.40000</ele>
        <time>2010-01-01T01:11:58Z</time>
      </trkpt>
      <trkpt lat="54.03585298" lon="-1.97725989">
        <ele>442.60000</ele>
        <time>2010-01-01T01:12:06Z</time>
      </trkpt>
      <trkpt lat="54.03575798" lon="-1.97665589">
        <ele>442.60000</ele>
        <time>2010-01-01T01:12:20Z</time>
      </trkpt>
      <trkpt lat="54.03576598" lon="-1.97573789">
        <ele>434.40000</ele>
        <time>2010-01-01T01:12:42Z</time>
      </trkpt>
      <trkpt lat="54.03527698" lon="-1.97493689">
        <ele>430.80000</ele>
        <time>2010-01-01T01:13:09Z</time>
      </trkpt>
      <trkpt lat="54.03523898" lon="-1.97472289">
        <ele>430.80000</ele>
        <time>2010-01-01T01:13:14Z</time>
      </trkpt>
      <trkpt lat="54.03522798" lon="-1.97428389">
        <ele>430.80000</ele>
        <time>2010-01-01T01:13:25Z</time>
      </trkpt>
      <trkpt lat="54.03515898" lon="-1.97392389">
        <ele>428.30000</ele>
        <time>2010-01-01T01:13:34Z</time>
      </trkpt>
      <trkpt lat="54.03515198" lon="-1.97329689">
        <ele>425.60000</ele>
        <time>2010-01-01T01:13:48Z</time>
      </trkpt>
      <trkpt lat="54.03507498" lon="-1.97296189">
        <ele>425.60000</ele>
        <time>2010-01-01T01:13:57Z</time>
      </trkpt>
      <trkpt lat="54.03475598" lon="-1.97276089">
        <ele>420.70000</ele>
        <time>2010-01-01T01:14:10Z</time>
      </trkpt>
      <trkpt lat="54.03453098" lon="-1.97279389">
        <ele>420.70000</ele>
        <time>2010-01-01T01:14:20Z</time>
      </trkpt>
      <trkpt lat="54.03414798" lon="-1.97297789">
        <ele>414.90000</ele>
        <time>2010-01-01T01:14:35Z</time>
      </trkpt>
      <trkpt lat="54.03405598" lon="-1.97287789">
        <ele>414.90000</ele>
        <time>2010-01-01T01:14:40Z</time>
      </trkpt>
      <trkpt lat="54.03392898" lon="-1.97258189">
        <ele>409.60000</ele>
        <time>2010-01-01T01:14:48Z</time>
      </trkpt>
      <trkpt lat="54.03375898" lon="-1.97176289">
        <ele>405.40000</ele>
        <time>2010-01-01T01:15:09Z</time>
      </trkpt>
      <trkpt lat="54.03372198" lon="-1.97026189">
        <ele>403.10000</ele>
        <time>2010-01-01T01:15:44Z</time>
      </trkpt>
      <trkpt lat="54.03330198" lon="-1.96918489">
        <ele>394.70000</ele>
        <time>2010-01-01T01:16:15Z</time>
      </trkpt>
      <trkpt lat="54.03316698" lon="-1.96852789">
        <ele>392.70000</ele>
        <time>2010-01-01T01:16:31Z</time>
      </trkpt>
      <trkpt lat="54.03312798" lon="-1.96816889">
        <ele>392.70000</ele>
        <time>2010-01-01T01:16:40Z</time>
      </trkpt>
      <trkpt lat="54.03301398" lon="-1.96775689">
        <ele>383.70000</ele>
        <time>2010-01-01T01:16:50Z</time>
      </trkpt>
      <trkpt lat="54.03294898" lon="-1.96735189">
        <ele>383.70000</ele>
        <time>2010-01-01T01:17:00Z</time>
      </trkpt>
      <trkpt lat="54.03279298" lon="-1.96685689">
        <ele>385.20000</ele>
        <time>2010-01-01T01:17:13Z</time>
      </trkpt>
      <trkpt lat="54.03274398" lon="-1.96651389">
        <ele>384.20000</ele>
        <time>2010-01-01T01:17:22Z</time>
      </trkpt>
      <trkpt lat="54.03219998" lon="-1.96531589">
        <ele>378.70000</ele>
        <time>2010-01-01T01:17:57Z</time>
      </trkpt>
      <trkpt lat="54.03194998" lon="-1.96491789">
        <ele>371.30000</ele>
        <time>2010-01-01T01:18:11Z</time>
      </trkpt>
      <trkpt lat="54.03182598" lon="-1.96446289">
        <ele>371.30000</ele>
        <time>2010-01-01T01:18:23Z</time>
      </trkpt>
      <trkpt lat="54.03177098" lon="-1.96410189">
        <ele>371.30000</ele>
        <time>2010-01-01T01:18:31Z</time>
      </trkpt>
      <trkpt lat="54.03162298" lon="-1.96369689">
        <ele>365.10000</ele>
        <time>2010-01-01T01:18:43Z</time>
      </trkpt>
      <trkpt lat="54.03156398" lon="-1.96367989">
        <ele>365.10000</ele>
        <time>2010-01-01T01:18:45Z</time>
      </trkpt>
      <trkpt lat="54.03039298" lon="-1.96467389">
        <ele>362.90000</ele>
        <time>2010-01-01T01:19:37Z</time>
      </trkpt>
      <trkpt lat="54.02988498" lon="-1.96487089">
        <ele>360.80000</ele>
        <time>2010-01-01T01:19:58Z</time>
      </trkpt>
      <trkpt lat="54.02969198" lon="-1.96478789">
        <ele>360.30000</ele>
        <time>2010-01-01T01:20:06Z</time>
      </trkpt>
      <trkpt lat="54.02917998" lon="-1.96434889">
        <ele>367.10000</ele>
        <time>2010-01-01T01:20:29Z</time>
      </trkpt>
      <trkpt lat="54.02808898" lon="-1.96374489">
        <ele>362.10000</ele>
        <time>2010-01-01T01:21:15Z</time>
      </trkpt>
      <trkpt lat="54.02745798" lon="-1.96365789">
        <ele>364.00000</ele>
        <time>2010-01-01T01:21:40Z</time>
      </trkpt>
      <trkpt lat="54.02599298" lon="-1.96371189">
        <ele>362.50000</ele>
        <time>2010-01-01T01:22:39Z</time>
      </trkpt>
      <trkpt lat="54.02474098" lon="-1.96404589">
        <ele>361.40000</ele>
        <time>2010-01-01T01:23:30Z</time>
      </trkpt>
      <trkpt lat="54.02375398" lon="-1.96455589">
        <ele>363.70000</ele>
        <time>2010-01-01T01:24:11Z</time>
      </trkpt>
      <trkpt lat="54.02352498" lon="-1.96476789">
        <ele>361.10000</ele>
        <time>2010-01-01T01:24:22Z</time>
      </trkpt>
      <trkpt lat="54.02333498" lon="-1.96506389">
        <ele>363.00000</ele>
        <time>2010-01-01T01:24:32Z</time>
      </trkpt>
      <trkpt lat="54.02317098" lon="-1.96544889">
        <ele>363.00000</ele>
        <time>2010-01-01T01:24:43Z</time>
      </trkpt>
      <trkpt lat="54.02283598" lon="-1.96588289">
        <ele>362.70000</ele>
        <time>2010-01-01T01:25:00Z</time>
      </trkpt>
      <trkpt lat="54.02161298" lon="-1.96685689">
        <ele>360.00000</ele>
        <time>2010-01-01T01:25:54Z</time>
      </trkpt>
      <trkpt lat="54.02098698" lon="-1.96707589">
        <ele>358.10000</ele>
        <time>2010-01-01T01:26:20Z</time>
      </trkpt>
      <trkpt lat="54.02056598" lon="-1.96731289">
        <ele>355.80000</ele>
        <time>2010-01-01T01:26:37Z</time>
      </trkpt>
      <trkpt lat="54.01944498" lon="-1.96804489">
        <ele>354.00000</ele>
        <time>2010-01-01T01:27:25Z</time>
      </trkpt>
      <trkpt lat="54.01920598" lon="-1.96828789">
        <ele>361.10000</ele>
        <time>2010-01-01T01:27:37Z</time>
      </trkpt>
      <trkpt lat="54.01897798" lon="-1.96842489">
        <ele>357.70000</ele>
        <time>2010-01-01T01:27:46Z</time>
      </trkpt>
      <trkpt lat="54.01886998" lon="-1.96857089">
        <ele>357.70000</ele>
        <time>2010-01-01T01:27:52Z</time>
      </trkpt>
      <trkpt lat="54.01848098" lon="-1.96884189">
        <ele>355.40000</ele>
        <time>2010-01-01T01:28:09Z</time>
      </trkpt>
      <trkpt lat="54.01825998" lon="-1.96916489">
        <ele>359.90000</ele>
        <time>2010-01-01T01:28:20Z</time>
      </trkpt>
      <trkpt lat="54.01815198" lon="-1.96948389">
        <ele>359.90000</ele>
        <time>2010-01-01T01:28:29Z</time>
      </trkpt>
      <trkpt lat="54.01804898" lon="-1.97002589">
        <ele>357.10000</ele>
        <time>2010-01-01T01:28:42Z</time>
      </trkpt>
      <trkpt lat="54.01790798" lon="-1.97184789">
        <ele>358.40000</ele>
        <time>2010-01-01T01:29:25Z</time>
      </trkpt>
      <trkpt lat="54.01786598" lon="-1.97280489">
        <ele>359.30000</ele>
        <time>2010-01-01T01:29:48Z</time>
      </trkpt>
      <trkpt lat="54.01784598" lon="-1.97350389">
        <ele>359.50000</ele>
        <time>2010-01-01T01:30:05Z</time>
      </trkpt>
      <trkpt lat="54.01786098" lon="-1.97377189">
        <ele>359.50000</ele>
        <time>2010-01-01T01:30:11Z</time>
      </trkpt>
      <trkpt lat="54.01797098" lon="-1.97434289">
        <ele>357.60000</ele>
        <time>2010-01-01T01:30:25Z</time>
      </trkpt>
      <trkpt lat="54.01798798" lon="-1.97491289">
        <ele>357.60000</ele>
        <time>2010-01-01T01:30:38Z</time>
      </trkpt>
      <trkpt lat="54.01796998" lon="-1.97511989">
        <ele>356.90000</ele>
        <time>2010-01-01T01:30:43Z</time>
      </trkpt>
      <trkpt lat="54.01794998" lon="-1.97507289">
        <ele>356.90000</ele>
        <time>2010-01-01T01:30:45Z</time>
      </trkpt>
      <trkpt lat="54.01780898" lon="-1.97448989">
        <ele>357.60000</ele>
        <time>2010-01-01T01:31:00Z</time>
      </trkpt>
      <trkpt lat="54.01755398" lon="-1.97384789">
        <ele>352.00000</ele>
        <time>2010-01-01T01:31:18Z</time>
      </trkpt>
      <trkpt lat="54.01722498" lon="-1.97281089">
        <ele>345.40000</ele>
        <time>2010-01-01T01:31:45Z</time>
      </trkpt>
      <trkpt lat="54.01625898" lon="-1.96871489">
        <ele>329.30000</ele>
        <time>2010-01-01T01:33:29Z</time>
      </trkpt>
      <trkpt lat="54.01611598" lon="-1.96785989">
        <ele>327.50000</ele>
        <time>2010-01-01T01:33:50Z</time>
      </trkpt>
      <trkpt lat="54.01608798" lon="-1.96744289">
        <ele>327.50000</ele>
        <time>2010-01-01T01:34:00Z</time>
      </trkpt>
      <trkpt lat="54.01621698" lon="-1.96682789">
        <ele>323.00000</ele>
        <time>2010-01-01T01:34:15Z</time>
      </trkpt>
      <trkpt lat="54.01631098" lon="-1.96664289">
        <ele>323.00000</ele>
        <time>2010-01-01T01:34:21Z</time>
      </trkpt>
      <trkpt lat="54.01644498" lon="-1.96653089">
        <ele>314.80000</ele>
        <time>2010-01-01T01:34:27Z</time>
      </trkpt>
      <trkpt lat="54.01699798" lon="-1.96634789">
        <ele>316.10000</ele>
        <time>2010-01-01T01:34:50Z</time>
      </trkpt>
      <trkpt lat="54.01735998" lon="-1.96606389">
        <ele>318.90000</ele>
        <time>2010-01-01T01:35:06Z</time>
      </trkpt>
      <trkpt lat="54.01760898" lon="-1.96557989">
        <ele>311.80000</ele>
        <time>2010-01-01T01:35:21Z</time>
      </trkpt>
      <trkpt lat="54.01784098" lon="-1.96463589">
        <ele>313.20000</ele>
        <time>2010-01-01T01:35:45Z</time>
      </trkpt>
      <trkpt lat="54.01782998" lon="-1.96440189">
        <ele>313.20000</ele>
        <time>2010-01-01T01:35:50Z</time>
      </trkpt>
      <trkpt lat="54.01775798" lon="-1.96426789">
        <ele>312.70000</ele>
        <time>2010-01-01T01:35:55Z</time>
      </trkpt>
      <trkpt lat="54.01751598" lon="-1.96413989">
        <ele>310.20000</ele>
        <time>2010-01-01T01:36:05Z</time>
      </trkpt>
      <trkpt lat="54.01685298" lon="-1.96401489">
        <ele>308.30000</ele>
        <time>2010-01-01T01:36:31Z</time>
      </trkpt>
      <trkpt lat="54.01590698" lon="-1.96399089">
        <ele>301.70000</ele>
        <time>2010-01-01T01:37:09Z</time>
      </trkpt>
      <trkpt lat="54.01524498" lon="-1.96417089">
        <ele>298.60000</ele>
        <time>2010-01-01T01:37:36Z</time>
      </trkpt>
      <trkpt lat="54.01505198" lon="-1.96413889">
        <ele>298.60000</ele>
        <time>2010-01-01T01:37:44Z</time>
      </trkpt>
      <trkpt lat="54.01434398" lon="-1.96354189">
        <ele>288.60000</ele>
        <time>2010-01-01T01:38:16Z</time>
      </trkpt>
      <trkpt lat="54.01331398" lon="-1.96285289">
        <ele>282.90000</ele>
        <time>2010-01-01T01:39:00Z</time>
      </trkpt>
      <trkpt lat="54.01321098" lon="-1.96273289">
        <ele>285.50000</ele>
        <time>2010-01-01T01:39:05Z</time>
      </trkpt>
      <trkpt lat="54.01313198" lon="-1.96251989">
        <ele>278.20000</ele>
        <time>2010-01-01T01:39:11Z</time>
      </trkpt>
      <trkpt lat="54.01303298" lon="-1.96178389">
        <ele>277.30000</ele>
        <time>2010-01-01T01:39:29Z</time>
      </trkpt>
      <trkpt lat="54.01294898" lon="-1.96152189">
        <ele>277.30000</ele>
        <time>2010-01-01T01:39:36Z</time>
      </trkpt>
      <trkpt lat="54.01267198" lon="-1.96122989">
        <ele>273.30000</ele>
        <time>2010-01-01T01:39:49Z</time>
      </trkpt>
      <trkpt lat="54.01240398" lon="-1.96065389">
        <ele>273.30000</ele>
        <time>2010-01-01T01:40:06Z</time>
      </trkpt>
      <trkpt lat="54.01157498" lon="-1.95984689">
        <ele>266.20000</ele>
        <time>2010-01-01T01:40:44Z</time>
      </trkpt>
      <trkpt lat="54.01108798" lon="-1.95750389">
        <ele>259.40000</ele>
        <time>2010-01-01T01:41:43Z</time>
      </trkpt>
      <trkpt lat="54.01085898" lon="-1.95672989">
        <ele>251.50000</ele>
        <time>2010-01-01T01:42:03Z</time>
      </trkpt>
      <trkpt lat="54.01071998" lon="-1.95561989">
        <ele>248.00000</ele>
        <time>2010-01-01T01:42:30Z</time>
      </trkpt>
      <trkpt lat="54.01069398" lon="-1.95495789">
        <ele>249.00000</ele>
        <time>2010-01-01T01:42:45Z</time>
      </trkpt>
      <trkpt lat="54.01066298" lon="-1.95488989">
        <ele>249.00000</ele>
        <time>2010-01-01T01:42:47Z</time>
      </trkpt>
      <trkpt lat="54.01061898" lon="-1.95500089">
        <ele>249.00000</ele>
        <time>2010-01-01T01:42:50Z</time>
      </trkpt>
      <trkpt lat="54.01056798" lon="-1.95546989">
        <ele>248.00000</ele>
        <time>2010-01-01T01:43:02Z</time>
      </trkpt>
      <trkpt lat="54.01036198" lon="-1.95555089">
        <ele>234.00000</ele>
        <time>2010-01-01T01:43:10Z</time>
      </trkpt>
      <trkpt lat="54.01026398" lon="-1.95610389">
        <ele>238.90000</ele>
        <time>2010-01-01T01:43:24Z</time>
      </trkpt>
      <trkpt lat="54.01022498" lon="-1.95613289">
        <ele>238.90000</ele>
        <time>2010-01-01T01:43:25Z</time>
      </trkpt>
      <trkpt lat="54.01009998" lon="-1.95611589">
        <ele>238.90000</ele>
        <time>2010-01-01T01:43:30Z</time>
      </trkpt>
      <trkpt lat="54.00994798" lon="-1.95581689">
        <ele>226.40000</ele>
        <time>2010-01-01T01:43:40Z</time>
      </trkpt>
      <trkpt lat="54.00959498" lon="-1.95547589">
        <ele>226.40000</ele>
        <time>2010-01-01T01:43:56Z</time>
      </trkpt>
      <trkpt lat="54.00955498" lon="-1.95523189">
        <ele>226.40000</ele>
        <time>2010-01-01T01:44:02Z</time>
      </trkpt>
      <trkpt lat="54.00963298" lon="-1.95512489">
        <ele>226.40000</ele>
        <time>2010-01-01T01:44:06Z</time>
      </trkpt>
      <trkpt lat="54.00961998" lon="-1.95499789">
        <ele>224.40000</ele>
        <time>2010-01-01T01:44:09Z</time>
      </trkpt>
      <trkpt lat="54.00936198" lon="-1.95451689">
        <ele>228.50000</ele>
        <time>2010-01-01T01:44:24Z</time>
      </trkpt>
      <trkpt lat="54.00922498" lon="-1.95445389">
        <ele>228.50000</ele>
        <time>2010-01-01T01:44:30Z</time>
      </trkpt>
      <trkpt lat="54.00900698" lon="-1.95457989">
        <ele>226.70000</ele>
        <time>2010-01-01T01:44:39Z</time>
      </trkpt>
      <trkpt lat="54.00868798" lon="-1.95366489">
        <ele>223.00000</ele>
        <time>2010-01-01T01:45:04Z</time>
      </trkpt>
      <trkpt lat="54.00851398" lon="-1.95331389">
        <ele>218.90000</ele>
        <time>2010-01-01T01:45:15Z</time>
      </trkpt>
      <trkpt lat="54.00823898" lon="-1.95306789">
        <ele>218.90000</ele>
        <time>2010-01-01T01:45:27Z</time>
      </trkpt>
      <trkpt lat="54.00791998" lon="-1.95265089">
        <ele>220.50000</ele>
        <time>2010-01-01T01:45:44Z</time>
      </trkpt>
      <trkpt lat="54.00734398" lon="-1.95162089">
        <ele>222.70000</ele>
        <time>2010-01-01T01:46:17Z</time>
      </trkpt>
      <trkpt lat="54.00682698" lon="-1.95125689">
        <ele>223.50000</ele>
        <time>2010-01-01T01:46:39Z</time>
      </trkpt>
      <trkpt lat="54.00635298" lon="-1.95108189">
        <ele>224.70000</ele>
        <time>2010-01-01T01:46:59Z</time>
      </trkpt>
      <trkpt lat="54.00447098" lon="-1.95118289">
        <ele>225.20000</ele>
        <time>2010-01-01T01:48:14Z</time>
      </trkpt>
      <trkpt lat="54.00424498" lon="-1.95112989">
        <ele>225.20000</ele>
        <time>2010-01-01T01:48:23Z</time>
      </trkpt>
      <trkpt lat="54.00378298" lon="-1.95079889">
        <ele>228.90000</ele>
        <time>2010-01-01T01:48:43Z</time>
      </trkpt>
      <trkpt lat="54.00361398" lon="-1.95059589">
        <ele>232.80000</ele>
        <time>2010-01-01T01:48:52Z</time>
      </trkpt>
      <trkpt lat="54.00307198" lon="-1.94974789">
        <ele>231.20000</ele>
        <time>2010-01-01T01:49:21Z</time>
      </trkpt>
      <trkpt lat="54.00250498" lon="-1.94832189">
        <ele>232.00000</ele>
        <time>2010-01-01T01:50:02Z</time>
      </trkpt>
      <trkpt lat="54.00214498" lon="-1.94776989">
        <ele>230.70000</ele>
        <time>2010-01-01T01:50:21Z</time>
      </trkpt>
      <trkpt lat="54.00120198" lon="-1.94695889">
        <ele>227.20000</ele>
        <time>2010-01-01T01:51:03Z</time>
      </trkpt>
      <trkpt lat="54.00107898" lon="-1.94693689">
        <ele>227.20000</ele>
        <time>2010-01-01T01:51:08Z</time>
      </trkpt>
      <trkpt lat="54.00035598" lon="-1.94739889">
        <ele>235.30000</ele>
        <time>2010-01-01T01:51:39Z</time>
      </trkpt>
      <trkpt lat="53.99904198" lon="-1.94802489">
        <ele>252.00000</ele>
        <time>2010-01-01T01:52:34Z</time>
      </trkpt>
      <trkpt lat="53.99865498" lon="-1.94787589">
        <ele>257.70000</ele>
        <time>2010-01-01T01:52:50Z</time>
      </trkpt>
      <trkpt lat="53.99849598" lon="-1.94769689">
        <ele>257.70000</ele>
        <time>2010-01-01T01:52:57Z</time>
      </trkpt>
      <trkpt lat="53.99790398" lon="-1.94663489">
        <ele>264.80000</ele>
        <time>2010-01-01T01:53:32Z</time>
      </trkpt>
      <trkpt lat="53.99697498" lon="-1.94446089">
        <ele>280.10000</ele>
        <time>2010-01-01T01:54:35Z</time>
      </trkpt>
      <trkpt lat="53.99654098" lon="-1.94378189">
        <ele>285.90000</ele>
        <time>2010-01-01T01:54:59Z</time>
      </trkpt>
      <trkpt lat="53.99627398" lon="-1.94351489">
        <ele>288.70000</ele>
        <time>2010-01-01T01:55:11Z</time>
      </trkpt>
      <trkpt lat="53.99621098" lon="-1.94355189">
        <ele>288.70000</ele>
        <time>2010-01-01T01:55:14Z</time>
      </trkpt>
      <trkpt lat="53.99609098" lon="-1.94377389">
        <ele>292.60000</ele>
        <time>2010-01-01T01:55:21Z</time>
      </trkpt>
      <trkpt lat="53.99595698" lon="-1.94411489">
        <ele>295.50000</ele>
        <time>2010-01-01T01:55:30Z</time>
      </trkpt>
      <trkpt lat="53.99574098" lon="-1.94433789">
        <ele>295.50000</ele>
        <time>2010-01-01T01:55:41Z</time>
      </trkpt>
      <trkpt lat="53.99572798" lon="-1.94434389">
        <ele>295.50000</ele>
        <time>2010-01-01T01:55:41Z</time>
      </trkpt>
      <trkpt lat="53.99571598" lon="-1.94434989">
        <ele>295.50000</ele>
        <time>2010-01-01T01:55:42Z</time>
      </trkpt>
      <trkpt lat="53.99570398" lon="-1.94435389">
        <ele>295.50000</ele>
        <time>2010-01-01T01:55:42Z</time>
      </trkpt>
      <trkpt lat="53.99569198" lon="-1.94435989">
        <ele>295.50000</ele>
        <time>2010-01-01T01:55:43Z</time>
      </trkpt>
      <trkpt lat="53.99568098" lon="-1.94436489">
        <ele>295.50000</ele>
        <time>2010-01-01T01:55:43Z</time>
      </trkpt>
      <trkpt lat="53.99566998" lon="-1.94436989">
        <ele>295.50000</ele>
        <time>2010-01-01T01:55:44Z</time>
      </trkpt>
      <trkpt lat="53.99565898" lon="-1.94437389">
        <ele>295.50000</ele>
        <time>2010-01-01T01:55:44Z</time>
      </trkpt>
      <trkpt lat="53.99562398" lon="-1.94437689">
        <ele>295.50000</ele>
        <time>2010-01-01T01:55:45Z</time>
      </trkpt>
      <trkpt lat="53.99561198" lon="-1.94437389">
        <ele>295.50000</ele>
        <time>2010-01-01T01:55:46Z</time>
      </trkpt>
      <trkpt lat="53.99559898" lon="-1.94436989">
        <ele>295.50000</ele>
        <time>2010-01-01T01:55:46Z</time>
      </trkpt>
      <trkpt lat="53.99558598" lon="-1.94436689">
        <ele>295.50000</ele>
        <time>2010-01-01T01:55:47Z</time>
      </trkpt>
      <trkpt lat="53.99557298" lon="-1.94436389">
        <ele>295.50000</ele>
        <time>2010-01-01T01:55:47Z</time>
      </trkpt>
      <trkpt lat="53.99556098" lon="-1.94435989">
        <ele>295.50000</ele>
        <time>2010-01-01T01:55:48Z</time>
      </trkpt>
      <trkpt lat="53.99554998" lon="-1.94435789">
        <ele>295.50000</ele>
        <time>2010-01-01T01:55:48Z</time>
      </trkpt>
      <trkpt lat="53.99553898" lon="-1.94435789">
        <ele>304.80000</ele>
        <time>2010-01-01T01:55:49Z</time>
      </trkpt>
      <trkpt lat="53.99552698" lon="-1.94435389">
        <ele>304.80000</ele>
        <time>2010-01-01T01:55:49Z</time>
      </trkpt>
      <trkpt lat="53.99551598" lon="-1.94434589">
        <ele>304.80000</ele>
        <time>2010-01-01T01:55:50Z</time>
      </trkpt>
      <trkpt lat="53.99550498" lon="-1.94433989">
        <ele>304.80000</ele>
        <time>2010-01-01T01:55:50Z</time>
      </trkpt>
      <trkpt lat="53.99549298" lon="-1.94433489">
        <ele>304.80000</ele>
        <time>2010-01-01T01:55:51Z</time>
      </trkpt>
      <trkpt lat="53.99548298" lon="-1.94432489">
        <ele>304.80000</ele>
        <time>2010-01-01T01:55:51Z</time>
      </trkpt>
      <trkpt lat="53.99547398" lon="-1.94431689">
        <ele>304.80000</ele>
        <time>2010-01-01T01:55:52Z</time>
      </trkpt>
      <trkpt lat="53.99546698" lon="-1.94431189">
        <ele>304.80000</ele>
        <time>2010-01-01T01:55:52Z</time>
      </trkpt>
      <trkpt lat="53.99546598" lon="-1.94431189">
        <ele>304.80000</ele>
        <time>2010-01-01T01:55:52Z</time>
      </trkpt>
      <trkpt lat="53.99546498" lon="-1.94431189">
        <ele>304.80000</ele>
        <time>2010-01-01T01:55:52Z</time>
      </trkpt>
      <trkpt lat="53.99546398" lon="-1.94431089">
        <ele>304.80000</ele>
        <time>2010-01-01T01:55:52Z</time>
      </trkpt>
      <trkpt lat="53.99546298" lon="-1.94430989">
        <ele>304.80000</ele>
        <time>2010-01-01T01:55:52Z</time>
      </trkpt>
      <trkpt lat="53.99546198" lon="-1.94430889">
        <ele>304.80000</ele>
        <time>2010-01-01T01:55:52Z</time>
      </trkpt>
      <trkpt lat="53.99545998" lon="-1.94430689">
        <ele>304.80000</ele>
        <time>2010-01-01T01:55:52Z</time>
      </trkpt>
      <trkpt lat="53.99545698" lon="-1.94430489">
        <ele>304.80000</ele>
        <time>2010-01-01T01:55:52Z</time>
      </trkpt>
      <trkpt lat="53.99545398" lon="-1.94430289">
        <ele>304.80000</ele>
        <time>2010-01-01T01:55:52Z</time>
      </trkpt>
      <trkpt lat="53.99535198" lon="-1.94421189">
        <ele>304.80000</ele>
        <time>2010-01-01T01:55:57Z</time>
      </trkpt>
      <trkpt lat="53.99534198" lon="-1.94420089">
        <ele>304.80000</ele>
        <time>2010-01-01T01:55:58Z</time>
      </trkpt>
      <trkpt lat="53.99533098" lon="-1.94419089">
        <ele>304.80000</ele>
        <time>2010-01-01T01:55:58Z</time>
      </trkpt>
      <trkpt lat="53.99531998" lon="-1.94418289">
        <ele>304.80000</ele>
        <time>2010-01-01T01:55:59Z</time>
      </trkpt>
      <trkpt lat="53.99530998" lon="-1.94417689">
        <ele>304.80000</ele>
        <time>2010-01-01T01:55:59Z</time>
      </trkpt>
      <trkpt lat="53.99530898" lon="-1.94417589">
        <ele>304.80000</ele>
        <time>2010-01-01T01:55:59Z</time>
      </trkpt>
      <trkpt lat="53.99530798" lon="-1.94417489">
        <ele>304.80000</ele>
        <time>2010-01-01T01:55:59Z</time>
      </trkpt>
      <trkpt lat="53.99530698" lon="-1.94417389">
        <ele>304.80000</ele>
        <time>2010-01-01T01:55:59Z</time>
      </trkpt>
      <trkpt lat="53.99530498" lon="-1.94417289">
        <ele>304.80000</ele>
        <time>2010-01-01T01:55:59Z</time>
      </trkpt>
      <trkpt lat="53.99530398" lon="-1.94417089">
        <ele>304.80000</ele>
        <time>2010-01-01T01:55:59Z</time>
      </trkpt>
      <trkpt lat="53.99530098" lon="-1.94416889">
        <ele>304.80000</ele>
        <time>2010-01-01T01:55:59Z</time>
      </trkpt>
      <trkpt lat="53.99529898" lon="-1.94416689">
        <ele>304.80000</ele>
        <time>2010-01-01T01:55:59Z</time>
      </trkpt>
      <trkpt lat="53.99529498" lon="-1.94416489">
        <ele>304.80000</ele>
        <time>2010-01-01T01:56:00Z</time>
      </trkpt>
      <trkpt lat="53.99518098" lon="-1.94407689">
        <ele>304.80000</ele>
        <time>2010-01-01T01:56:05Z</time>
      </trkpt>
      <trkpt lat="53.99516798" lon="-1.94406989">
        <ele>304.80000</ele>
        <time>2010-01-01T01:56:05Z</time>
      </trkpt>
      <trkpt lat="53.99515598" lon="-1.94406389">
        <ele>304.80000</ele>
        <time>2010-01-01T01:56:06Z</time>
      </trkpt>
      <trkpt lat="53.99514298" lon="-1.94405689">
        <ele>304.80000</ele>
        <time>2010-01-01T01:56:06Z</time>
      </trkpt>
      <trkpt lat="53.99513198" lon="-1.94405589">
        <ele>304.80000</ele>
        <time>2010-01-01T01:56:07Z</time>
      </trkpt>
      <trkpt lat="53.99511998" lon="-1.94405389">
        <ele>304.80000</ele>
        <time>2010-01-01T01:56:07Z</time>
      </trkpt>
      <trkpt lat="53.99510298" lon="-1.94405189">
        <ele>304.80000</ele>
        <time>2010-01-01T01:56:08Z</time>
      </trkpt>
      <trkpt lat="53.99508498" lon="-1.94404989">
        <ele>303.80000</ele>
        <time>2010-01-01T01:56:09Z</time>
      </trkpt>
      <trkpt lat="53.99507098" lon="-1.94404889">
        <ele>303.80000</ele>
        <time>2010-01-01T01:56:09Z</time>
      </trkpt>
      <trkpt lat="53.99505898" lon="-1.94404789">
        <ele>303.80000</ele>
        <time>2010-01-01T01:56:10Z</time>
      </trkpt>
      <trkpt lat="53.99504598" lon="-1.94404589">
        <ele>303.80000</ele>
        <time>2010-01-01T01:56:10Z</time>
      </trkpt>
      <trkpt lat="53.99503298" lon="-1.94404689">
        <ele>303.80000</ele>
        <time>2010-01-01T01:56:11Z</time>
      </trkpt>
      <trkpt lat="53.99501998" lon="-1.94404689">
        <ele>303.80000</ele>
        <time>2010-01-01T01:56:11Z</time>
      </trkpt>
      <trkpt lat="53.99500698" lon="-1.94404689">
        <ele>303.80000</ele>
        <time>2010-01-01T01:56:12Z</time>
      </trkpt>
      <trkpt lat="53.99499498" lon="-1.94404689">
        <ele>303.80000</ele>
        <time>2010-01-01T01:56:12Z</time>
      </trkpt>
      <trkpt lat="53.99498298" lon="-1.94404489">
        <ele>303.80000</ele>
        <time>2010-01-01T01:56:13Z</time>
      </trkpt>
      <trkpt lat="53.99496898" lon="-1.94404389">
        <ele>303.80000</ele>
        <time>2010-01-01T01:56:13Z</time>
      </trkpt>
      <trkpt lat="53.99495698" lon="-1.94404489">
        <ele>303.80000</ele>
        <time>2010-01-01T01:56:14Z</time>
      </trkpt>
      <trkpt lat="53.99494498" lon="-1.94404689">
        <ele>303.80000</ele>
        <time>2010-01-01T01:56:14Z</time>
      </trkpt>
      <trkpt lat="53.99493298" lon="-1.94404889">
        <ele>303.80000</ele>
        <time>2010-01-01T01:56:15Z</time>
      </trkpt>
      <trkpt lat="53.99492098" lon="-1.94404889">
        <ele>303.80000</ele>
        <time>2010-01-01T01:56:15Z</time>
      </trkpt>
      <trkpt lat="53.99490898" lon="-1.94404989">
        <ele>303.80000</ele>
        <time>2010-01-01T01:56:16Z</time>
      </trkpt>
      <trkpt lat="53.99489598" lon="-1.94405189">
        <ele>303.80000</ele>
        <time>2010-01-01T01:56:16Z</time>
      </trkpt>
      <trkpt lat="53.99488398" lon="-1.94405489">
        <ele>303.80000</ele>
        <time>2010-01-01T01:56:17Z</time>
      </trkpt>
      <trkpt lat="53.99487098" lon="-1.94405989">
        <ele>303.80000</ele>
        <time>2010-01-01T01:56:17Z</time>
      </trkpt>
      <trkpt lat="53.99485898" lon="-1.94406489">
        <ele>303.80000</ele>
        <time>2010-01-01T01:56:18Z</time>
      </trkpt>
      <trkpt lat="53.99484598" lon="-1.94406889">
        <ele>303.80000</ele>
        <time>2010-01-01T01:56:18Z</time>
      </trkpt>
      <trkpt lat="53.99483398" lon="-1.94407389">
        <ele>303.80000</ele>
        <time>2010-01-01T01:56:19Z</time>
      </trkpt>
      <trkpt lat="53.99481998" lon="-1.94407789">
        <ele>303.80000</ele>
        <time>2010-01-01T01:56:19Z</time>
      </trkpt>
      <trkpt lat="53.99480798" lon="-1.94408489">
        <ele>303.80000</ele>
        <time>2010-01-01T01:56:20Z</time>
      </trkpt>
      <trkpt lat="53.99479598" lon="-1.94408989">
        <ele>303.80000</ele>
        <time>2010-01-01T01:56:20Z</time>
      </trkpt>
      <trkpt lat="53.99478298" lon="-1.94409089">
        <ele>303.80000</ele>
        <time>2010-01-01T01:56:21Z</time>
      </trkpt>
      <trkpt lat="53.99477098" lon="-1.94409089">
        <ele>303.80000</ele>
        <time>2010-01-01T01:56:21Z</time>
      </trkpt>
      <trkpt lat="53.99475798" lon="-1.94409589">
        <ele>303.80000</ele>
        <time>2010-01-01T01:56:22Z</time>
      </trkpt>
      <trkpt lat="53.99474698" lon="-1.94410389">
        <ele>303.80000</ele>
        <time>2010-01-01T01:56:22Z</time>
      </trkpt>
      <trkpt lat="53.99473498" lon="-1.94410889">
        <ele>303.80000</ele>
        <time>2010-01-01T01:56:23Z</time>
      </trkpt>
      <trkpt lat="53.99471998" lon="-1.94410989">
        <ele>303.80000</ele>
        <time>2010-01-01T01:56:23Z</time>
      </trkpt>
      <trkpt lat="53.99470698" lon="-1.94411789">
        <ele>303.80000</ele>
        <time>2010-01-01T01:56:24Z</time>
      </trkpt>
      <trkpt lat="53.99469498" lon="-1.94412689">
        <ele>303.80000</ele>
        <time>2010-01-01T01:56:24Z</time>
      </trkpt>
      <trkpt lat="53.99468098" lon="-1.94413489">
        <ele>303.80000</ele>
        <time>2010-01-01T01:56:25Z</time>
      </trkpt>
      <trkpt lat="53.99466898" lon="-1.94414289">
        <ele>303.80000</ele>
        <time>2010-01-01T01:56:26Z</time>
      </trkpt>
      <trkpt lat="53.99465798" lon="-1.94415189">
        <ele>303.80000</ele>
        <time>2010-01-01T01:56:26Z</time>
      </trkpt>
      <trkpt lat="53.99464598" lon="-1.94415989">
        <ele>303.80000</ele>
        <time>2010-01-01T01:56:27Z</time>
      </trkpt>
      <trkpt lat="53.99463498" lon="-1.94416889">
        <ele>305.30000</ele>
        <time>2010-01-01T01:56:27Z</time>
      </trkpt>
      <trkpt lat="53.99462298" lon="-1.94417589">
        <ele>305.30000</ele>
        <time>2010-01-01T01:56:28Z</time>
      </trkpt>
      <trkpt lat="53.99460998" lon="-1.94418189">
        <ele>305.30000</ele>
        <time>2010-01-01T01:56:28Z</time>
      </trkpt>
      <trkpt lat="53.99459798" lon="-1.94418989">
        <ele>305.30000</ele>
        <time>2010-01-01T01:56:29Z</time>
      </trkpt>
      <trkpt lat="53.99458498" lon="-1.94419989">
        <ele>305.30000</ele>
        <time>2010-01-01T01:56:29Z</time>
      </trkpt>
      <trkpt lat="53.99457298" lon="-1.94421189">
        <ele>305.30000</ele>
        <time>2010-01-01T01:56:30Z</time>
      </trkpt>
      <trkpt lat="53.99455998" lon="-1.94422089">
        <ele>305.30000</ele>
        <time>2010-01-01T01:56:30Z</time>
      </trkpt>
      <trkpt lat="53.99454798" lon="-1.94422689">
        <ele>305.30000</ele>
        <time>2010-01-01T01:56:31Z</time>
      </trkpt>
      <trkpt lat="53.99453598" lon="-1.94423189">
        <ele>305.30000</ele>
        <time>2010-01-01T01:56:31Z</time>
      </trkpt>
      <trkpt lat="53.99452398" lon="-1.94423789">
        <ele>305.30000</ele>
        <time>2010-01-01T01:56:32Z</time>
      </trkpt>
      <trkpt lat="53.99451098" lon="-1.94424489">
        <ele>305.30000</ele>
        <time>2010-01-01T01:56:32Z</time>
      </trkpt>
      <trkpt lat="53.99449798" lon="-1.94424789">
        <ele>305.30000</ele>
        <time>2010-01-01T01:56:33Z</time>
      </trkpt>
      <trkpt lat="53.99448598" lon="-1.94425089">
        <ele>305.30000</ele>
        <time>2010-01-01T01:56:33Z</time>
      </trkpt>
      <trkpt lat="53.99447198" lon="-1.94425589">
        <ele>305.30000</ele>
        <time>2010-01-01T01:56:34Z</time>
      </trkpt>
      <trkpt lat="53.99445998" lon="-1.94426189">
        <ele>305.30000</ele>
        <time>2010-01-01T01:56:34Z</time>
      </trkpt>
      <trkpt lat="53.99444898" lon="-1.94427089">
        <ele>305.30000</ele>
        <time>2010-01-01T01:56:35Z</time>
      </trkpt>
      <trkpt lat="53.99443698" lon="-1.94427889">
        <ele>305.30000</ele>
        <time>2010-01-01T01:56:35Z</time>
      </trkpt>
      <trkpt lat="53.99442498" lon="-1.94428589">
        <ele>305.30000</ele>
        <time>2010-01-01T01:56:36Z</time>
      </trkpt>
      <trkpt lat="53.99441398" lon="-1.94429489">
        <ele>305.30000</ele>
        <time>2010-01-01T01:56:36Z</time>
      </trkpt>
      <trkpt lat="53.99440398" lon="-1.94430489">
        <ele>305.30000</ele>
        <time>2010-01-01T01:56:37Z</time>
      </trkpt>
      <trkpt lat="53.99439398" lon="-1.94431389">
        <ele>305.30000</ele>
        <time>2010-01-01T01:56:37Z</time>
      </trkpt>
      <trkpt lat="53.99439298" lon="-1.94431389">
        <ele>305.30000</ele>
        <time>2010-01-01T01:56:37Z</time>
      </trkpt>
    </trkseg>
  </trk>
</gpx>

